sensor_id;sensor_type;location;lat;lon;timestamp;P1;durP1;ratioP1;P2;durP2;ratioP2
18512;SDS011;9385;48.380;9.744;2022-12-31T00:00:37;0.88;;;0.60;;
18512;SDS011;9385;48.380;9.744;2022-12-31T00:03:05;3.00;;;0.82;;
18512;SDS011;9385;48.380;9.744;2022-12-31T00:05:34;1.30;;;0.60;;
18512;SDS011;9385;48.380;9.744;2022-12-31T00:08:02;2.25;;;0.60;;
18512;SDS011;9385;48.380;9.744;2022-12-31T00:10:29;0.63;;;0.50;;
18512;SDS011;9385;48.380;9.744;2022-12-31T00:12:57;2.10;;;0.60;;
18512;SDS011;9385;48.380;9.744;2022-12-31T00:15:23;0.80;;;0.70;;
18512;SDS011;9385;48.380;9.744;2022-12-31T00:17:50;1.08;;;0.60;;
18512;SDS011;9385;48.380;9.744;2022-12-31T00:20:17;0.80;;;0.60;;
18512;SDS011;9385;48.380;9.744;2022-12-31T00:22:45;1.90;;;0.70;;
18512;SDS011;9385;48.380;9.744;2022-12-31T00:25:12;0.77;;;0.60;;
18512;SDS011;9385;48.380;9.744;2022-12-31T00:27:39;1.30;;;0.68;;
18512;SDS011;9385;48.380;9.744;2022-12-31T00:30:06;1.20;;;0.60;;
18512;SDS011;9385;48.380;9.744;2022-12-31T00:32:34;1.60;;;0.70;;
18512;SDS011;9385;48.380;9.744;2022-12-31T00:35:00;1.60;;;0.80;;
18512;SDS011;9385;48.380;9.744;2022-12-31T00:37:27;1.10;;;0.60;;
18512;SDS011;9385;48.380;9.744;2022-12-31T00:39:55;2.05;;;0.65;;
18512;SDS011;9385;48.380;9.744;2022-12-31T00:42:22;0.83;;;0.70;;
18512;SDS011;9385;48.380;9.744;2022-12-31T00:44:49;1.40;;;0.80;;
18512;SDS011;9385;48.380;9.744;2022-12-31T00:47:16;1.13;;;0.80;;
18512;SDS011;9385;48.380;9.744;2022-12-31T00:49:42;2.30;;;0.90;;
18512;SDS011;9385;48.380;9.744;2022-12-31T00:52:09;0.80;;;0.70;;
18512;SDS011;9385;48.380;9.744;2022-12-31T00:54:37;0.90;;;0.60;;
18512;SDS011;9385;48.380;9.744;2022-12-31T00:57:05;0.65;;;0.60;;
18512;SDS011;9385;48.380;9.744;2022-12-31T00:59:32;1.70;;;0.63;;
18512;SDS011;9385;48.380;9.744;2022-12-31T01:01:59;1.65;;;0.60;;
18512;SDS011;9385;48.380;9.744;2022-12-31T01:04:26;1.67;;;0.70;;
18512;SDS011;9385;48.380;9.744;2022-12-31T01:06:53;1.60;;;0.70;;
18512;SDS011;9385;48.380;9.744;2022-12-31T01:09:19;1.00;;;0.70;;
18512;SDS011;9385;48.380;9.744;2022-12-31T01:11:48;1.85;;;0.70;;
18512;SDS011;9385;48.380;9.744;2022-12-31T01:14:17;1.80;;;1.00;;
18512;SDS011;9385;48.380;9.744;2022-12-31T01:16:46;1.92;;;0.90;;
18512;SDS011;9385;48.380;9.744;2022-12-31T01:19:15;1.08;;;0.70;;
18512;SDS011;9385;48.380;9.744;2022-12-31T01:21:43;1.50;;;0.63;;
18512;SDS011;9385;48.380;9.744;2022-12-31T01:24:10;1.30;;;0.70;;
18512;SDS011;9385;48.380;9.744;2022-12-31T01:26:38;1.50;;;0.70;;
18512;SDS011;9385;48.380;9.744;2022-12-31T01:29:05;1.30;;;0.88;;
18512;SDS011;9385;48.380;9.744;2022-12-31T01:31:35;1.10;;;0.60;;
18512;SDS011;9385;48.380;9.744;2022-12-31T01:34:03;1.77;;;0.98;;
18512;SDS011;9385;48.380;9.744;2022-12-31T01:36:31;1.55;;;0.65;;
18512;SDS011;9385;48.380;9.744;2022-12-31T01:38:59;1.30;;;0.70;;
18512;SDS011;9385;48.380;9.744;2022-12-31T01:41:28;1.17;;;0.80;;
18512;SDS011;9385;48.380;9.744;2022-12-31T01:43:57;1.38;;;0.70;;
18512;SDS011;9385;48.380;9.744;2022-12-31T01:46:26;0.90;;;0.70;;
18512;SDS011;9385;48.380;9.744;2022-12-31T01:48:59;2.10;;;0.85;;
18512;SDS011;9385;48.380;9.744;2022-12-31T01:51:29;2.40;;;0.80;;
18512;SDS011;9385;48.380;9.744;2022-12-31T01:53:58;2.03;;;0.70;;
18512;SDS011;9385;48.380;9.744;2022-12-31T01:56:28;0.80;;;0.60;;
18512;SDS011;9385;48.380;9.744;2022-12-31T01:58:55;2.47;;;0.70;;
18512;SDS011;9385;48.380;9.744;2022-12-31T02:01:23;1.90;;;0.70;;
18512;SDS011;9385;48.380;9.744;2022-12-31T02:03:53;1.27;;;0.70;;
18512;SDS011;9385;48.380;9.744;2022-12-31T02:06:24;1.17;;;0.80;;
18512;SDS011;9385;48.380;9.744;2022-12-31T02:08:56;0.90;;;0.77;;
18512;SDS011;9385;48.380;9.744;2022-12-31T02:11:24;1.30;;;0.68;;
18512;SDS011;9385;48.380;9.744;2022-12-31T02:13:53;1.38;;;0.95;;
18512;SDS011;9385;48.380;9.744;2022-12-31T02:16:26;1.70;;;0.73;;
18512;SDS011;9385;48.380;9.744;2022-12-31T02:19:00;2.40;;;0.80;;
18512;SDS011;9385;48.380;9.744;2022-12-31T02:21:46;1.92;;;0.80;;
18512;SDS011;9385;48.380;9.744;2022-12-31T02:24:30;1.13;;;0.80;;
18512;SDS011;9385;48.380;9.744;2022-12-31T02:27:09;1.80;;;0.90;;
18512;SDS011;9385;48.380;9.744;2022-12-31T02:32:37;1.10;;;0.80;;
18512;SDS011;9385;48.380;9.744;2022-12-31T02:35:11;1.17;;;0.70;;
18512;SDS011;9385;48.380;9.744;2022-12-31T02:37:41;2.70;;;1.00;;
18512;SDS011;9385;48.380;9.744;2022-12-31T02:40:12;0.95;;;0.70;;
18512;SDS011;9385;48.380;9.744;2022-12-31T02:42:42;1.73;;;0.80;;
18512;SDS011;9385;48.380;9.744;2022-12-31T02:45:09;1.88;;;0.75;;
18512;SDS011;9385;48.380;9.744;2022-12-31T02:47:42;1.10;;;0.98;;
18512;SDS011;9385;48.380;9.744;2022-12-31T02:50:22;1.67;;;0.90;;
18512;SDS011;9385;48.380;9.744;2022-12-31T02:53:02;1.17;;;0.70;;
18512;SDS011;9385;48.380;9.744;2022-12-31T02:55:39;1.80;;;0.90;;
18512;SDS011;9385;48.380;9.744;2022-12-31T02:58:12;2.60;;;1.00;;
18512;SDS011;9385;48.380;9.744;2022-12-31T03:00:47;1.80;;;0.80;;
18512;SDS011;9385;48.380;9.744;2022-12-31T03:03:35;1.02;;;0.80;;
18512;SDS011;9385;48.380;9.744;2022-12-31T03:06:03;3.50;;;0.90;;
18512;SDS011;9385;48.380;9.744;2022-12-31T03:08:32;0.70;;;0.70;;
18512;SDS011;9385;48.380;9.744;2022-12-31T03:11:20;0.95;;;0.70;;
18512;SDS011;9385;48.380;9.744;2022-12-31T03:14:00;1.58;;;0.77;;
18512;SDS011;9385;48.380;9.744;2022-12-31T03:16:27;4.03;;;0.70;;
18512;SDS011;9385;48.380;9.744;2022-12-31T03:18:55;1.70;;;0.80;;
18512;SDS011;9385;48.380;9.744;2022-12-31T03:21:39;1.00;;;0.70;;
18512;SDS011;9385;48.380;9.744;2022-12-31T03:24:23;0.73;;;0.70;;
18512;SDS011;9385;48.380;9.744;2022-12-31T03:27:07;1.58;;;0.70;;
18512;SDS011;9385;48.380;9.744;2022-12-31T03:29:34;1.35;;;0.80;;
18512;SDS011;9385;48.380;9.744;2022-12-31T03:32:01;1.45;;;0.70;;
18512;SDS011;9385;48.380;9.744;2022-12-31T03:34:29;1.10;;;0.70;;
18512;SDS011;9385;48.380;9.744;2022-12-31T03:36:56;1.65;;;0.70;;
18512;SDS011;9385;48.380;9.744;2022-12-31T03:39:22;1.17;;;0.70;;
18512;SDS011;9385;48.380;9.744;2022-12-31T03:41:49;2.10;;;0.60;;
18512;SDS011;9385;48.380;9.744;2022-12-31T03:44:16;2.75;;;0.80;;
18512;SDS011;9385;48.380;9.744;2022-12-31T03:46:43;1.38;;;0.52;;
18512;SDS011;9385;48.380;9.744;2022-12-31T03:49:09;2.10;;;0.70;;
18512;SDS011;9385;48.380;9.744;2022-12-31T03:51:37;1.70;;;0.60;;
18512;SDS011;9385;48.380;9.744;2022-12-31T03:54:04;3.40;;;0.65;;
18512;SDS011;9385;48.380;9.744;2022-12-31T03:56:31;1.70;;;0.63;;
18512;SDS011;9385;48.380;9.744;2022-12-31T03:58:58;1.38;;;0.57;;
18512;SDS011;9385;48.380;9.744;2022-12-31T04:01:25;1.25;;;0.70;;
18512;SDS011;9385;48.380;9.744;2022-12-31T04:03:51;1.42;;;0.63;;
18512;SDS011;9385;48.380;9.744;2022-12-31T04:06:18;1.90;;;0.60;;
18512;SDS011;9385;48.380;9.744;2022-12-31T04:08:46;1.48;;;0.60;;
18512;SDS011;9385;48.380;9.744;2022-12-31T04:11:13;1.47;;;0.70;;
18512;SDS011;9385;48.380;9.744;2022-12-31T04:13:40;3.13;;;0.68;;
18512;SDS011;9385;48.380;9.744;2022-12-31T04:16:07;2.20;;;0.77;;
18512;SDS011;9385;48.380;9.744;2022-12-31T04:18:33;2.90;;;0.63;;
18512;SDS011;9385;48.380;9.744;2022-12-31T04:21:00;1.30;;;0.67;;
18512;SDS011;9385;48.380;9.744;2022-12-31T04:23:28;1.17;;;0.50;;
18512;SDS011;9385;48.380;9.744;2022-12-31T04:25:56;1.15;;;0.60;;
18512;SDS011;9385;48.380;9.744;2022-12-31T04:28:23;1.13;;;0.50;;
18512;SDS011;9385;48.380;9.744;2022-12-31T04:30:50;2.03;;;0.77;;
18512;SDS011;9385;48.380;9.744;2022-12-31T04:33:16;1.30;;;0.60;;
18512;SDS011;9385;48.380;9.744;2022-12-31T04:35:43;1.33;;;0.70;;
18512;SDS011;9385;48.380;9.744;2022-12-31T04:38:10;0.70;;;0.50;;
18512;SDS011;9385;48.380;9.744;2022-12-31T04:40:37;2.05;;;0.63;;
18512;SDS011;9385;48.380;9.744;2022-12-31T04:43:25;0.90;;;0.50;;
18512;SDS011;9385;48.380;9.744;2022-12-31T04:45:51;1.48;;;0.60;;
18512;SDS011;9385;48.380;9.744;2022-12-31T04:48:18;3.00;;;0.70;;
18512;SDS011;9385;48.380;9.744;2022-12-31T04:50:45;2.40;;;0.50;;
18512;SDS011;9385;48.380;9.744;2022-12-31T04:53:12;1.42;;;0.50;;
18512;SDS011;9385;48.380;9.744;2022-12-31T04:55:39;2.58;;;0.65;;
18512;SDS011;9385;48.380;9.744;2022-12-31T04:58:06;0.90;;;0.70;;
18512;SDS011;9385;48.380;9.744;2022-12-31T05:00:34;1.90;;;0.50;;
18512;SDS011;9385;48.380;9.744;2022-12-31T05:03:01;1.83;;;0.60;;
18512;SDS011;9385;48.380;9.744;2022-12-31T05:05:28;2.47;;;0.50;;
18512;SDS011;9385;48.380;9.744;2022-12-31T05:07:55;1.05;;;0.65;;
18512;SDS011;9385;48.380;9.744;2022-12-31T05:10:21;2.13;;;0.60;;
18512;SDS011;9385;48.380;9.744;2022-12-31T05:12:48;2.50;;;0.80;;
18512;SDS011;9385;48.380;9.744;2022-12-31T05:15:15;1.20;;;0.80;;
18512;SDS011;9385;48.380;9.744;2022-12-31T05:17:43;2.65;;;1.02;;
18512;SDS011;9385;48.380;9.744;2022-12-31T05:20:10;3.60;;;1.40;;
18512;SDS011;9385;48.380;9.744;2022-12-31T05:22:36;3.42;;;1.10;;
18512;SDS011;9385;48.380;9.744;2022-12-31T05:25:04;3.13;;;0.98;;
18512;SDS011;9385;48.380;9.744;2022-12-31T05:27:31;1.10;;;0.80;;
18512;SDS011;9385;48.380;9.744;2022-12-31T05:29:58;1.88;;;0.65;;
18512;SDS011;9385;48.380;9.744;2022-12-31T05:32:25;1.60;;;0.80;;
18512;SDS011;9385;48.380;9.744;2022-12-31T05:34:53;1.23;;;0.70;;
18512;SDS011;9385;48.380;9.744;2022-12-31T05:37:20;1.97;;;1.00;;
18512;SDS011;9385;48.380;9.744;2022-12-31T05:39:46;1.77;;;0.70;;
18512;SDS011;9385;48.380;9.744;2022-12-31T05:42:13;2.35;;;0.70;;
18512;SDS011;9385;48.380;9.744;2022-12-31T05:44:40;1.60;;;0.70;;
18512;SDS011;9385;48.380;9.744;2022-12-31T05:47:07;2.50;;;0.80;;
18512;SDS011;9385;48.380;9.744;2022-12-31T05:49:33;1.35;;;0.80;;
18512;SDS011;9385;48.380;9.744;2022-12-31T05:52:02;1.17;;;0.80;;
18512;SDS011;9385;48.380;9.744;2022-12-31T05:54:28;1.80;;;0.80;;
18512;SDS011;9385;48.380;9.744;2022-12-31T05:56:55;2.13;;;0.90;;
18512;SDS011;9385;48.380;9.744;2022-12-31T05:59:22;1.13;;;0.80;;
18512;SDS011;9385;48.380;9.744;2022-12-31T06:01:49;2.03;;;0.90;;
18512;SDS011;9385;48.380;9.744;2022-12-31T06:04:16;0.70;;;0.60;;
18512;SDS011;9385;48.380;9.744;2022-12-31T06:06:43;2.00;;;0.80;;
18512;SDS011;9385;48.380;9.744;2022-12-31T06:09:11;2.78;;;0.80;;
18512;SDS011;9385;48.380;9.744;2022-12-31T06:11:38;2.03;;;0.73;;
18512;SDS011;9385;48.380;9.744;2022-12-31T06:14:05;1.40;;;0.60;;
18512;SDS011;9385;48.380;9.744;2022-12-31T06:16:32;1.23;;;0.75;;
18512;SDS011;9385;48.380;9.744;2022-12-31T06:18:58;2.05;;;0.65;;
18512;SDS011;9385;48.380;9.744;2022-12-31T06:21:26;1.80;;;0.53;;
18512;SDS011;9385;48.380;9.744;2022-12-31T06:23:53;3.45;;;0.60;;
18512;SDS011;9385;48.380;9.744;2022-12-31T06:26:22;4.70;;;0.60;;
18512;SDS011;9385;48.380;9.744;2022-12-31T06:28:49;1.73;;;0.70;;
18512;SDS011;9385;48.380;9.744;2022-12-31T06:31:16;2.00;;;0.70;;
18512;SDS011;9385;48.380;9.744;2022-12-31T06:33:43;1.10;;;0.70;;
18512;SDS011;9385;48.380;9.744;2022-12-31T06:36:11;3.25;;;0.88;;
18512;SDS011;9385;48.380;9.744;2022-12-31T06:38:39;2.27;;;0.67;;
18512;SDS011;9385;48.380;9.744;2022-12-31T06:41:08;2.00;;;0.80;;
18512;SDS011;9385;48.380;9.744;2022-12-31T06:43:37;2.13;;;0.55;;
18512;SDS011;9385;48.380;9.744;2022-12-31T06:46:06;1.10;;;0.50;;
18512;SDS011;9385;48.380;9.744;2022-12-31T06:48:34;2.42;;;0.70;;
18512;SDS011;9385;48.380;9.744;2022-12-31T06:51:02;2.28;;;0.70;;
18512;SDS011;9385;48.380;9.744;2022-12-31T06:53:30;1.63;;;0.80;;
18512;SDS011;9385;48.380;9.744;2022-12-31T06:55:57;1.58;;;0.80;;
18512;SDS011;9385;48.380;9.744;2022-12-31T06:58:29;3.10;;;0.90;;
18512;SDS011;9385;48.380;9.744;2022-12-31T07:01:00;1.50;;;0.80;;
18512;SDS011;9385;48.380;9.744;2022-12-31T07:03:32;1.10;;;0.73;;
18512;SDS011;9385;48.380;9.744;2022-12-31T07:06:04;2.00;;;0.70;;
18512;SDS011;9385;48.380;9.744;2022-12-31T07:08:44;2.63;;;0.90;;
18512;SDS011;9385;48.380;9.744;2022-12-31T07:11:19;0.90;;;0.70;;
18512;SDS011;9385;48.380;9.744;2022-12-31T07:13:58;2.57;;;0.77;;
18512;SDS011;9385;48.380;9.744;2022-12-31T07:16:35;3.08;;;0.60;;
18512;SDS011;9385;48.380;9.744;2022-12-31T07:19:11;1.20;;;0.50;;
18512;SDS011;9385;48.380;9.744;2022-12-31T07:21:48;0.95;;;0.70;;
18512;SDS011;9385;48.380;9.744;2022-12-31T07:24:16;1.65;;;0.70;;
18512;SDS011;9385;48.380;9.744;2022-12-31T07:26:49;2.50;;;0.80;;
18512;SDS011;9385;48.380;9.744;2022-12-31T07:29:30;1.38;;;0.90;;
18512;SDS011;9385;48.380;9.744;2022-12-31T07:32:09;1.30;;;0.93;;
18512;SDS011;9385;48.380;9.744;2022-12-31T07:34:50;1.45;;;1.00;;
18512;SDS011;9385;48.380;9.744;2022-12-31T07:37:26;1.70;;;0.80;;
18512;SDS011;9385;48.380;9.744;2022-12-31T07:40:02;1.75;;;0.88;;
18512;SDS011;9385;48.380;9.744;2022-12-31T07:42:37;2.80;;;0.80;;
18512;SDS011;9385;48.380;9.744;2022-12-31T07:45:11;1.45;;;1.00;;
18512;SDS011;9385;48.380;9.744;2022-12-31T07:47:46;2.30;;;0.90;;
18512;SDS011;9385;48.380;9.744;2022-12-31T07:50:14;3.10;;;1.52;;
18512;SDS011;9385;48.380;9.744;2022-12-31T07:52:43;3.80;;;1.63;;
18512;SDS011;9385;48.380;9.744;2022-12-31T07:55:10;3.13;;;1.50;;
18512;SDS011;9385;48.380;9.744;2022-12-31T07:57:37;4.63;;;1.85;;
18512;SDS011;9385;48.380;9.744;2022-12-31T08:00:13;3.90;;;1.48;;
18512;SDS011;9385;48.380;9.744;2022-12-31T08:02:58;2.85;;;1.20;;
18512;SDS011;9385;48.380;9.744;2022-12-31T08:05:37;1.95;;;1.17;;
18512;SDS011;9385;48.380;9.744;2022-12-31T08:08:12;2.10;;;1.20;;
18512;SDS011;9385;48.380;9.744;2022-12-31T08:10:54;4.45;;;1.30;;
18512;SDS011;9385;48.380;9.744;2022-12-31T08:13:28;3.42;;;1.05;;
18512;SDS011;9385;48.380;9.744;2022-12-31T08:15:57;2.00;;;1.00;;
18512;SDS011;9385;48.380;9.744;2022-12-31T08:18:26;1.48;;;1.00;;
18512;SDS011;9385;48.380;9.744;2022-12-31T08:20:56;2.00;;;1.10;;
18512;SDS011;9385;48.380;9.744;2022-12-31T08:23:30;3.10;;;1.10;;
18512;SDS011;9385;48.380;9.744;2022-12-31T08:26:13;3.33;;;1.25;;
18512;SDS011;9385;48.380;9.744;2022-12-31T08:28:55;2.30;;;1.20;;
18512;SDS011;9385;48.380;9.744;2022-12-31T08:31:30;1.50;;;1.10;;
18512;SDS011;9385;48.380;9.744;2022-12-31T08:34:09;1.80;;;1.00;;
18512;SDS011;9385;48.380;9.744;2022-12-31T08:36:44;1.77;;;0.95;;
18512;SDS011;9385;48.380;9.744;2022-12-31T08:39:21;2.25;;;1.20;;
18512;SDS011;9385;48.380;9.744;2022-12-31T08:41:56;2.92;;;1.70;;
18512;SDS011;9385;48.380;9.744;2022-12-31T08:44:27;4.00;;;1.67;;
18512;SDS011;9385;48.380;9.744;2022-12-31T08:47:02;2.15;;;1.35;;
18512;SDS011;9385;48.380;9.744;2022-12-31T08:49:40;2.28;;;1.10;;
18512;SDS011;9385;48.380;9.744;2022-12-31T08:52:11;3.17;;;0.95;;
18512;SDS011;9385;48.380;9.744;2022-12-31T08:54:41;2.20;;;1.10;;
18512;SDS011;9385;48.380;9.744;2022-12-31T08:57:11;2.27;;;1.00;;
18512;SDS011;9385;48.380;9.744;2022-12-31T08:59:43;2.35;;;1.50;;
18512;SDS011;9385;48.380;9.744;2022-12-31T09:02:31;2.28;;;1.10;;
18512;SDS011;9385;48.380;9.744;2022-12-31T09:05:15;2.28;;;1.30;;
18512;SDS011;9385;48.380;9.744;2022-12-31T09:07:48;1.65;;;1.13;;
18512;SDS011;9385;48.380;9.744;2022-12-31T09:10:25;3.10;;;1.00;;
18512;SDS011;9385;48.380;9.744;2022-12-31T09:12:57;2.22;;;1.10;;
18512;SDS011;9385;48.380;9.744;2022-12-31T09:15:32;2.47;;;0.95;;
18512;SDS011;9385;48.380;9.744;2022-12-31T09:18:06;2.35;;;1.10;;
18512;SDS011;9385;48.380;9.744;2022-12-31T09:20:36;2.90;;;0.88;;
18512;SDS011;9385;48.380;9.744;2022-12-31T09:23:03;3.60;;;0.80;;
18512;SDS011;9385;48.380;9.744;2022-12-31T09:25:31;1.10;;;0.87;;
18512;SDS011;9385;48.380;9.744;2022-12-31T09:28:08;2.95;;;0.90;;
18512;SDS011;9385;48.380;9.744;2022-12-31T09:30:41;1.58;;;0.80;;
18512;SDS011;9385;48.380;9.744;2022-12-31T09:33:16;0.90;;;0.70;;
18512;SDS011;9385;48.380;9.744;2022-12-31T09:35:57;2.05;;;0.80;;
18512;SDS011;9385;48.380;9.744;2022-12-31T09:38:29;1.80;;;0.77;;
18512;SDS011;9385;48.380;9.744;2022-12-31T09:41:12;3.85;;;0.82;;
18512;SDS011;9385;48.380;9.744;2022-12-31T09:44:02;7.55;;;1.20;;
18512;SDS011;9385;48.380;9.744;2022-12-31T09:53:09;1.65;;;0.85;;
18512;SDS011;9385;48.380;9.744;2022-12-31T09:55:55;3.35;;;0.90;;
18512;SDS011;9385;48.380;9.744;2022-12-31T09:58:31;16.73;;;1.30;;
18512;SDS011;9385;48.380;9.744;2022-12-31T10:01:10;2.95;;;0.77;;
18512;SDS011;9385;48.380;9.744;2022-12-31T10:03:54;0.80;;;0.50;;
18512;SDS011;9385;48.380;9.744;2022-12-31T10:06:36;1.90;;;0.70;;
18512;SDS011;9385;48.380;9.744;2022-12-31T10:09:27;2.60;;;0.80;;
18512;SDS011;9385;48.380;9.744;2022-12-31T10:15:27;1.00;;;0.80;;
18512;SDS011;9385;48.380;9.744;2022-12-31T10:18:10;1.00;;;0.60;;
18512;SDS011;9385;48.380;9.744;2022-12-31T10:20:50;3.20;;;0.70;;
18512;SDS011;9385;48.380;9.744;2022-12-31T10:26:42;1.57;;;0.80;;
18512;SDS011;9385;48.380;9.744;2022-12-31T10:29:30;1.40;;;0.70;;
18512;SDS011;9385;48.380;9.744;2022-12-31T10:32:14;2.10;;;0.80;;
18512;SDS011;9385;48.380;9.744;2022-12-31T10:34:53;1.20;;;0.80;;
18512;SDS011;9385;48.380;9.744;2022-12-31T10:37:23;1.25;;;0.70;;
18512;SDS011;9385;48.380;9.744;2022-12-31T10:39:57;1.50;;;0.80;;
18512;SDS011;9385;48.380;9.744;2022-12-31T10:42:56;1.30;;;0.68;;
18512;SDS011;9385;48.380;9.744;2022-12-31T10:45:46;0.60;;;0.60;;
18512;SDS011;9385;48.380;9.744;2022-12-31T10:55:03;2.03;;;0.90;;
18512;SDS011;9385;48.380;9.744;2022-12-31T11:01:04;3.10;;;2.30;;
18512;SDS011;9385;48.380;9.744;2022-12-31T11:06:42;4.10;;;2.97;;
18512;SDS011;9385;48.380;9.744;2022-12-31T11:12:31;1.65;;;0.95;;
18512;SDS011;9385;48.380;9.744;2022-12-31T11:15:21;1.50;;;0.85;;
18512;SDS011;9385;48.380;9.744;2022-12-31T11:17:58;2.60;;;0.90;;
18512;SDS011;9385;48.380;9.744;2022-12-31T11:20:37;1.73;;;1.50;;
18512;SDS011;9385;48.380;9.744;2022-12-31T11:23:23;2.45;;;1.80;;
18512;SDS011;9385;48.380;9.744;2022-12-31T11:26:04;1.88;;;1.63;;
18512;SDS011;9385;48.380;9.744;2022-12-31T11:28:41;4.40;;;1.80;;
18512;SDS011;9385;48.380;9.744;2022-12-31T11:31:27;4.70;;;2.35;;
18512;SDS011;9385;48.380;9.744;2022-12-31T11:34:18;4.97;;;2.60;;
18512;SDS011;9385;48.380;9.744;2022-12-31T11:36:58;3.40;;;2.40;;
18512;SDS011;9385;48.380;9.744;2022-12-31T11:39:43;4.95;;;3.00;;
18512;SDS011;9385;48.380;9.744;2022-12-31T11:42:22;8.80;;;5.03;;
18512;SDS011;9385;48.380;9.744;2022-12-31T11:44:58;6.40;;;4.30;;
18512;SDS011;9385;48.380;9.744;2022-12-31T11:47:46;5.53;;;3.00;;
18512;SDS011;9385;48.380;9.744;2022-12-31T11:50:25;6.63;;;3.13;;
18512;SDS011;9385;48.380;9.744;2022-12-31T11:53:01;5.68;;;2.40;;
18512;SDS011;9385;48.380;9.744;2022-12-31T11:55:52;6.28;;;3.80;;
18512;SDS011;9385;48.380;9.744;2022-12-31T11:58:28;4.45;;;2.88;;
18512;SDS011;9385;48.380;9.744;2022-12-31T12:00:56;3.40;;;1.88;;
18512;SDS011;9385;48.380;9.744;2022-12-31T12:03:31;2.75;;;1.00;;
18512;SDS011;9385;48.380;9.744;2022-12-31T12:06:02;2.45;;;1.23;;
18512;SDS011;9385;48.380;9.744;2022-12-31T12:08:29;1.60;;;0.90;;
18512;SDS011;9385;48.380;9.744;2022-12-31T12:10:59;2.33;;;1.30;;
18512;SDS011;9385;48.380;9.744;2022-12-31T12:13:30;3.25;;;1.10;;
18512;SDS011;9385;48.380;9.744;2022-12-31T12:15:58;1.98;;;1.10;;
18512;SDS011;9385;48.380;9.744;2022-12-31T12:18:28;3.42;;;1.17;;
18512;SDS011;9385;48.380;9.744;2022-12-31T12:21:00;1.60;;;1.20;;
18512;SDS011;9385;48.380;9.744;2022-12-31T12:23:31;2.80;;;1.40;;
18512;SDS011;9385;48.380;9.744;2022-12-31T12:25:58;2.10;;;1.50;;
18512;SDS011;9385;48.380;9.744;2022-12-31T12:28:26;2.13;;;1.30;;
18512;SDS011;9385;48.380;9.744;2022-12-31T12:30:56;2.47;;;1.60;;
18512;SDS011;9385;48.380;9.744;2022-12-31T12:33:24;2.10;;;1.30;;
18512;SDS011;9385;48.380;9.744;2022-12-31T12:35:53;2.42;;;1.20;;
18512;SDS011;9385;48.380;9.744;2022-12-31T12:38:32;1.15;;;0.90;;
18512;SDS011;9385;48.380;9.744;2022-12-31T12:41:00;2.42;;;1.23;;
18512;SDS011;9385;48.380;9.744;2022-12-31T12:43:30;3.25;;;1.23;;
18512;SDS011;9385;48.380;9.744;2022-12-31T12:45:59;1.80;;;1.20;;
18512;SDS011;9385;48.380;9.744;2022-12-31T12:48:30;1.65;;;0.88;;
18512;SDS011;9385;48.380;9.744;2022-12-31T12:51:06;3.40;;;0.90;;
18512;SDS011;9385;48.380;9.744;2022-12-31T12:53:42;1.20;;;0.90;;
18512;SDS011;9385;48.380;9.744;2022-12-31T12:56:17;1.50;;;0.75;;
18512;SDS011;9385;48.380;9.744;2022-12-31T12:58:55;1.23;;;0.80;;
18512;SDS011;9385;48.380;9.744;2022-12-31T13:01:34;1.77;;;0.93;;
18512;SDS011;9385;48.380;9.744;2022-12-31T13:04:13;3.60;;;0.90;;
18512;SDS011;9385;48.380;9.744;2022-12-31T13:06:52;1.35;;;0.80;;
18512;SDS011;9385;48.380;9.744;2022-12-31T13:09:29;1.60;;;0.82;;
18512;SDS011;9385;48.380;9.744;2022-12-31T13:12:10;2.22;;;1.13;;
18512;SDS011;9385;48.380;9.744;2022-12-31T13:14:43;1.95;;;0.90;;
18512;SDS011;9385;48.380;9.744;2022-12-31T13:17:31;2.10;;;0.90;;
18512;SDS011;9385;48.380;9.744;2022-12-31T13:20:10;1.15;;;0.90;;
18512;SDS011;9385;48.380;9.744;2022-12-31T13:22:45;1.13;;;0.80;;
18512;SDS011;9385;48.380;9.744;2022-12-31T13:25:20;1.60;;;1.00;;
18512;SDS011;9385;48.380;9.744;2022-12-31T13:27:52;4.05;;;1.27;;
18512;SDS011;9385;48.380;9.744;2022-12-31T13:30:22;1.55;;;0.90;;
18512;SDS011;9385;48.380;9.744;2022-12-31T13:32:51;1.45;;;0.80;;
18512;SDS011;9385;48.380;9.744;2022-12-31T13:35:26;2.38;;;1.10;;
18512;SDS011;9385;48.380;9.744;2022-12-31T13:38:01;1.80;;;1.17;;
18512;SDS011;9385;48.380;9.744;2022-12-31T13:40:31;2.20;;;1.00;;
18512;SDS011;9385;48.380;9.744;2022-12-31T13:43:06;1.38;;;1.08;;
18512;SDS011;9385;48.380;9.744;2022-12-31T13:45:42;1.30;;;1.00;;
18512;SDS011;9385;48.380;9.744;2022-12-31T13:48:15;1.48;;;0.80;;
18512;SDS011;9385;48.380;9.744;2022-12-31T13:50:50;0.95;;;0.65;;
18512;SDS011;9385;48.380;9.744;2022-12-31T13:53:23;1.27;;;1.00;;
18512;SDS011;9385;48.380;9.744;2022-12-31T13:55:53;4.13;;;1.60;;
18512;SDS011;9385;48.380;9.744;2022-12-31T13:58:27;1.60;;;0.95;;
18512;SDS011;9385;48.380;9.744;2022-12-31T14:01:00;2.15;;;1.15;;
18512;SDS011;9385;48.380;9.744;2022-12-31T14:03:38;4.75;;;1.50;;
18512;SDS011;9385;48.380;9.744;2022-12-31T14:06:10;3.50;;;1.30;;
18512;SDS011;9385;48.380;9.744;2022-12-31T14:08:45;2.60;;;1.05;;
18512;SDS011;9385;48.380;9.744;2022-12-31T14:11:13;1.92;;;1.02;;
18512;SDS011;9385;48.380;9.744;2022-12-31T14:13:57;1.27;;;0.90;;
18512;SDS011;9385;48.380;9.744;2022-12-31T14:16:34;2.08;;;1.20;;
18512;SDS011;9385;48.380;9.744;2022-12-31T14:19:10;3.00;;;1.38;;
18512;SDS011;9385;48.380;9.744;2022-12-31T14:21:43;3.85;;;1.70;;
18512;SDS011;9385;48.380;9.744;2022-12-31T14:24:15;7.03;;;2.10;;
18512;SDS011;9385;48.380;9.744;2022-12-31T14:26:53;5.88;;;2.20;;
18512;SDS011;9385;48.380;9.744;2022-12-31T14:29:29;3.75;;;2.17;;
18512;SDS011;9385;48.380;9.744;2022-12-31T14:32:09;4.60;;;2.17;;
18512;SDS011;9385;48.380;9.744;2022-12-31T14:34:58;2.03;;;1.20;;
18512;SDS011;9385;48.380;9.744;2022-12-31T14:37:39;3.30;;;1.20;;
18512;SDS011;9385;48.380;9.744;2022-12-31T14:40:16;3.22;;;1.13;;
18512;SDS011;9385;48.380;9.744;2022-12-31T14:42:51;2.50;;;0.93;;
18512;SDS011;9385;48.380;9.744;2022-12-31T14:45:34;2.42;;;1.10;;
18512;SDS011;9385;48.380;9.744;2022-12-31T14:48:15;4.00;;;1.00;;
18512;SDS011;9385;48.380;9.744;2022-12-31T14:50:54;2.85;;;1.10;;
18512;SDS011;9385;48.380;9.744;2022-12-31T14:53:23;2.47;;;1.30;;
18512;SDS011;9385;48.380;9.744;2022-12-31T14:55:57;3.13;;;1.40;;
18512;SDS011;9385;48.380;9.744;2022-12-31T14:58:29;5.55;;;1.20;;
18512;SDS011;9385;48.380;9.744;2022-12-31T15:00:58;3.60;;;1.10;;
18512;SDS011;9385;48.380;9.744;2022-12-31T15:03:32;6.93;;;1.10;;
18512;SDS011;9385;48.380;9.744;2022-12-31T15:06:05;2.90;;;1.17;;
18512;SDS011;9385;48.380;9.744;2022-12-31T15:08:56;3.47;;;1.50;;
18512;SDS011;9385;48.380;9.744;2022-12-31T15:11:36;4.30;;;1.90;;
18512;SDS011;9385;48.380;9.744;2022-12-31T15:17:15;2.25;;;1.40;;
18512;SDS011;9385;48.380;9.744;2022-12-31T15:22:43;3.10;;;1.20;;
18512;SDS011;9385;48.380;9.744;2022-12-31T15:25:19;5.30;;;1.23;;
18512;SDS011;9385;48.380;9.744;2022-12-31T15:27:50;1.98;;;1.20;;
18512;SDS011;9385;48.380;9.744;2022-12-31T15:30:29;2.33;;;1.20;;
18512;SDS011;9385;48.380;9.744;2022-12-31T15:33:00;5.78;;;1.10;;
18512;SDS011;9385;48.380;9.744;2022-12-31T15:35:30;3.33;;;1.10;;
18512;SDS011;9385;48.380;9.744;2022-12-31T15:38:16;2.05;;;1.00;;
18512;SDS011;9385;48.380;9.744;2022-12-31T15:40:59;2.33;;;1.10;;
18512;SDS011;9385;48.380;9.744;2022-12-31T15:43:42;2.07;;;1.00;;
18512;SDS011;9385;48.380;9.744;2022-12-31T15:46:15;1.67;;;1.20;;
18512;SDS011;9385;48.380;9.744;2022-12-31T15:48:45;1.50;;;1.00;;
18512;SDS011;9385;48.380;9.744;2022-12-31T15:51:18;3.57;;;1.13;;
18512;SDS011;9385;48.380;9.744;2022-12-31T15:53:49;2.42;;;1.10;;
18512;SDS011;9385;48.380;9.744;2022-12-31T15:56:19;1.80;;;1.10;;
18512;SDS011;9385;48.380;9.744;2022-12-31T15:58:54;3.35;;;1.30;;
18512;SDS011;9385;48.380;9.744;2022-12-31T16:01:24;4.55;;;1.20;;
18512;SDS011;9385;48.380;9.744;2022-12-31T16:03:57;1.80;;;1.20;;
18512;SDS011;9385;48.380;9.744;2022-12-31T16:06:26;2.35;;;1.33;;
18512;SDS011;9385;48.380;9.744;2022-12-31T16:08:55;3.47;;;1.40;;
18512;SDS011;9385;48.380;9.744;2022-12-31T16:11:23;3.70;;;1.27;;